Time;durP1;ratioP1;P1;durP2;ratioP2;P2;SDS_P1;SDS_P2;PMS_P1;PMS_P2;Temp;Humidity;BMP_temperature;BMP_pressure;BME280_temperature;BME280_humidity;BME280_pressure;Samples;Min_cycle;Max_cycle;Signal;HPM_P1;HPM_P2
2022/01/18 00:01:34;;;;;;;;;;;5.90;99.90;;;;;;5107239;27;19919;-80
2022/01/18 00:04:00;;;;;;;;;;;5.70;99.90;;;;;;5086945;27;20406;-79
2022/01/18 00:06:26;;;;;;;;;;;5.70;99.90;;;;;;5114571;27;19947;-79
2022/01/18 00:08:52;;;;;;;;;;;5.60;99.90;;;;;;5107924;27;20340;-79
2022/01/18 00:11:20;;;;;;;;;;;5.60;99.90;;;;;;5115378;27;19955;-78
2022/01/18 00:13:48;;;;;;;;;;;5.70;99.90;;;;;;5116276;27;19919;-81
2022/01/18 00:16:31;;;;;;;;;;;5.40;99.90;;;;;;5117548;27;19960;-80
2022/01/18 00:19:00;;;;;;;;;;;5.40;99.90;;;;;;5113138;28;20300;-80
2022/01/18 00:23:57;;;;;;;;;;;5.40;99.90;;;;;;5115316;28;19916;-81
2022/01/18 00:26:26;;;;;;;;;;;5.30;99.90;;;;;;5111690;28;20285;-79
2022/01/18 00:28:54;;;;;;;;;;;5.20;99.90;;;;;;5104468;28;19946;-78
2022/01/18 00:31:36;;;;;;;;;;;5.10;99.90;;;;;;5114443;28;19919;-79
2022/01/18 00:34:10;;;;;;;;;;;5.20;99.90;;;;;;5105661;28;19919;-78
2022/01/18 00:39:02;;;;;;;;;;;5.20;99.90;;;;;;5111700;28;19915;-81
2022/01/18 00:41:28;;;;;;;;;;;5.00;99.90;;;;;;5112111;28;20002;-80
2022/01/18 00:43:54;;;;;;;;;;;5.00;99.90;;;;;;5105521;28;19995;-78
2022/01/18 00:46:20;;;;;;;;;;;5.00;99.90;;;;;;5108662;28;19915;-80
2022/01/18 00:48:46;;;;;;;;;;;5.20;99.90;;;;;;5112550;28;19915;-80
2022/01/18 00:51:13;;;;;;;;;;;5.20;99.90;;;;;;5113695;28;19923;-79
2022/01/18 00:53:40;;;;;;;;;;;5.10;99.90;;;;;;5112583;28;19916;-82
2022/01/18 00:58:38;;;;;;;;;;;5.10;99.90;;;;;;5112427;28;19927;-79
2022/01/18 01:01:04;;;;;;;;;;;5.10;99.90;;;;;;5110212;28;20036;-78
2022/01/18 01:03:29;;;;;;;;;;;5.10;99.90;;;;;;5112629;28;20010;-79
2022/01/18 01:05:55;;;;;;;;;;;5.20;99.90;;;;;;5084027;28;19916;-79
2022/01/18 01:08:21;;;;;;;;;;;5.20;99.90;;;;;;5088642;28;19928;-81
2022/01/18 01:10:47;;;;;;;;;;;5.20;99.90;;;;;;5099394;28;20048;-80
2022/01/18 01:13:13;;;;;;;;;;;5.20;99.90;;;;;;5112708;28;20002;-78
2022/01/18 01:16:37;;;;;;;;;;;5.20;99.90;;;;;;5112107;28;20365;-81
2022/01/18 01:34:50;;;;;;;;;;;5.10;99.90;;;;;;5113455;28;19931;-80
2022/01/18 01:41:47;;;;;;;;;;;5.00;99.90;;;;;;5108673;28;19919;-82
2022/01/18 01:42:59;;;;;;;;;;;4.90;99.90;;;;;;5106146;28;20367;-81
2022/01/18 01:45:27;;;;;;;;;;;4.90;99.90;;;;;;5105381;28;20348;-79
2022/01/18 01:47:56;;;;;;;;;;;5.10;99.90;;;;;;5109190;28;19916;-80
2022/01/18 01:50:23;;;;;;;;;;;4.90;99.90;;;;;;5107209;28;20019;-80
2022/01/18 01:52:50;;;;;;;;;;;5.00;99.90;;;;;;5104122;28;20485;-78
2022/01/18 01:55:16;;;;;;;;;;;5.00;99.90;;;;;;5111803;28;19923;-79
2022/01/18 01:57:42;;;;;;;;;;;5.00;99.90;;;;;;5104212;28;19915;-83
2022/01/18 02:00:13;;;;;;;;;;;5.00;99.90;;;;;;5116021;28;19927;-79
2022/01/18 02:02:39;;;;;;;;;;;5.10;99.90;;;;;;5111233;28;19915;-83
2022/01/18 02:05:05;;;;;;;;;;;5.10;99.90;;;;;;5104169;28;19916;-82
2022/01/18 02:07:31;;;;;;;;;;;5.20;99.90;;;;;;5110025;28;20111;-80
2022/01/18 02:09:57;;;;;;;;;;;5.20;99.90;;;;;;5111278;28;20368;-81
2022/01/18 02:12:23;;;;;;;;;;;5.10;99.90;;;;;;5111697;28;19924;-81
2022/01/18 02:14:55;;;;;;;;;;;5.20;99.90;;;;;;5090980;28;20486;-80
2022/01/18 02:22:49;;;;;;;;;;;5.30;99.90;;;;;;5110235;28;19971;-81
2022/01/18 02:25:15;;;;;;;;;;;5.40;99.90;;;;;;5099504;28;19954;-81
2022/01/18 02:27:41;;;;;;;;;;;5.30;99.90;;;;;;5110447;28;19980;-78
2022/01/18 02:30:07;;;;;;;;;;;5.30;99.90;;;;;;5110848;28;20384;-83
2022/01/18 02:32:35;;;;;;;;;;;5.30;99.90;;;;;;5106174;28;19916;-77
2022/01/18 02:35:01;;;;;;;;;;;5.20;99.90;;;;;;5110640;28;19929;-79
2022/01/18 02:37:27;;;;;;;;;;;5.30;99.90;;;;;;5104269;28;19916;-79
2022/01/18 02:39:53;;;;;;;;;;;5.30;99.90;;;;;;5081989;28;20416;-81
2022/01/18 02:42:25;;;;;;;;;;;5.30;99.90;;;;;;5112064;28;19915;-79
2022/01/18 02:44:52;;;;;;;;;;;5.40;99.90;;;;;;5104857;28;19923;-79
2022/01/18 02:47:19;;;;;;;;;;;5.50;99.90;;;;;;5091780;28;19920;-82
2022/01/18 02:49:46;;;;;;;;;;;5.40;99.90;;;;;;5105573;28;19978;-79
2022/01/18 02:52:12;;;;;;;;;;;5.50;99.90;;;;;;5099997;28;19953;-83
2022/01/18 02:54:37;;;;;;;;;;;5.50;99.90;;;;;;5112017;28;20242;-80
2022/01/18 02:57:06;;;;;;;;;;;5.50;99.90;;;;;;5105619;28;19916;-81
2022/01/18 02:59:56;;;;;;;;;;;5.50;99.90;;;;;;5087040;28;19923;-82
2022/01/18 03:05:08;;;;;;;;;;;5.60;99.90;;;;;;5103218;28;19923;-80
2022/01/18 03:07:34;;;;;;;;;;;5.50;99.90;;;;;;5110205;28;20250;-80
2022/01/18 03:09:59;;;;;;;;;;;5.60;99.90;;;;;;5104824;28;19922;-79
2022/01/18 03:12:25;;;;;;;;;;;5.60;99.90;;;;;;5104451;28;19916;-81
2022/01/18 03:14:51;;;;;;;;;;;5.60;99.90;;;;;;5110704;28;20368;-80
2022/01/18 03:17:16;;;;;;;;;;;5.60;99.90;;;;;;5089992;28;19916;-80
2022/01/18 03:19:42;;;;;;;;;;;5.70;99.90;;;;;;5133039;27;19924;-80
2022/01/18 03:22:08;;;;;;;;;;;5.70;99.90;;;;;;5111379;27;19942;-80
2022/01/18 03:24:49;;;;;;;;;;;5.70;99.90;;;;;;5119511;27;19940;-79
2022/01/18 03:30:02;;;;;;;;;;;5.70;99.90;;;;;;5114453;27;19916;-78
2022/01/18 03:32:28;;;;;;;;;;;5.70;99.90;;;;;;5120693;27;20577;-77
2022/01/18 03:34:53;;;;;;;;;;;5.60;99.90;;;;;;5102270;27;19927;-79
2022/01/18 03:37:19;;;;;;;;;;;5.70;99.90;;;;;;5122944;27;20322;-76
2022/01/18 03:39:44;;;;;;;;;;;5.80;99.90;;;;;;5124381;27;20002;-79
2022/01/18 03:44:42;;;;;;;;;;;5.80;99.90;;;;;;5105200;27;20411;-81
2022/01/18 03:47:08;;;;;;;;;;;5.80;99.90;;;;;;5115523;27;20006;-80
2022/01/18 03:49:36;;;;;;;;;;;5.80;99.90;;;;;;5113910;27;19999;-80
2022/01/18 03:52:02;;;;;;;;;;;5.80;99.90;;;;;;5108832;27;20354;-80
2022/01/18 03:54:27;;;;;;;;;;;5.80;99.90;;;;;;5114970;27;19988;-81
2022/01/18 03:56:53;;;;;;;;;;;6.00;99.90;;;;;;5114443;27;19922;-78
2022/01/18 03:59:18;;;;;;;;;;;5.80;99.90;;;;;;5095483;27;20296;-83
2022/01/18 04:01:45;;;;;;;;;;;5.80;99.90;;;;;;5090311;27;19915;-79
2022/01/18 04:04:11;;;;;;;;;;;5.80;99.90;;;;;;5117049;27;20421;-81
2022/01/18 04:06:37;;;;;;;;;;;5.80;99.90;;;;;;5124133;27;19916;-79
2022/01/18 04:09:03;;;;;;;;;;;5.70;99.90;;;;;;5115907;27;19916;-82
2022/01/18 04:11:29;;;;;;;;;;;5.80;99.90;;;;;;5097014;28;19915;-79
2022/01/18 04:13:54;;;;;;;;;;;5.70;99.90;;;;;;5116481;27;19922;-79
2022/01/18 04:16:20;;;;;;;;;;;5.30;99.90;;;;;;5118119;27;19963;-83
2022/01/18 04:18:59;;;;;;;;;;;5.70;99.90;;;;;;5118553;27;19919;-82
2022/01/18 04:27:01;;;;;;;;;;;5.80;99.90;;;;;;5117706;27;19915;-78
2022/01/18 04:29:26;;;;;;;;;;;5.70;99.90;;;;;;5110908;27;19923;-80
2022/01/18 04:31:52;;;;;;;;;;;5.70;99.90;;;;;;5115925;27;20329;-79
2022/01/18 04:34:18;;;;;;;;;;;5.70;99.90;;;;;;5108498;27;20464;-81
2022/01/18 04:36:45;;;;;;;;;;;5.60;99.90;;;;;;5116589;27;19922;-79
2022/01/18 04:39:11;;;;;;;;;;;5.70;99.90;;;;;;5109669;27;19916;-81
2022/01/18 04:41:37;;;;;;;;;;;5.90;99.90;;;;;;5121656;27;19930;-79
2022/01/18 04:48:23;;;;;;;;;;;5.90;99.90;;;;;;5102872;27;20006;-79
2022/01/18 04:49:35;;;;;;;;;;;5.80;99.90;;;;;;5117927;27;19990;-80
2022/01/18 04:52:02;;;;;;;;;;;5.80;99.90;;;;;;5096216;28;20093;-80
2022/01/18 04:54:30;;;;;;;;;;;5.80;99.90;;;;;;5132062;27;19930;-80
2022/01/18 04:59:21;;;;;;;;;;;5.80;99.90;;;;;;5088404;27;20329;-81
2022/01/18 05:01:47;;;;;;;;;;;5.80;99.90;;;;;;5099808;27;20334;-81
2022/01/18 05:04:13;;;;;;;;;;;5.90;99.90;;;;;;5097845;27;19916;-83
2022/01/18 05:06:38;;;;;;;;;;;5.90;99.90;;;;;;5098676;27;20240;-82
2022/01/18 05:09:09;;;;;;;;;;;5.90;99.90;;;;;;5133552;27;19916;-81
2022/01/18 05:11:42;;;;;;;;;;;5.90;99.90;;;;;;5099254;27;20010;-81
2022/01/18 05:19:19;;;;;;;;;;;5.90;99.90;;;;;;5115388;27;20368;-81
2022/01/18 05:24:25;;;;;;;;;;;6.00;99.90;;;;;;5093992;27;20005;-80
2022/01/18 05:26:51;;;;;;;;;;;6.00;99.90;;;;;;5087925;27;19922;-78
2022/01/18 05:29:17;;;;;;;;;;;5.90;99.90;;;;;;5113607;27;19927;-81
2022/01/18 05:31:43;;;;;;;;;;;6.00;99.90;;;;;;5114215;27;19916;-78
2022/01/18 05:34:09;;;;;;;;;;;5.90;99.90;;;;;;5124575;27;19915;-80
2022/01/18 05:36:35;;;;;;;;;;;6.00;99.90;;;;;;5112234;27;19990;-78
2022/01/18 05:39:01;;;;;;;;;;;6.00;99.90;;;;;;5114650;27;19968;-79
2022/01/18 05:41:27;;;;;;;;;;;5.90;99.90;;;;;;5115394;27;19923;-79
2022/01/18 05:43:53;;;;;;;;;;;5.90;99.90;;;;;;5122587;27;19922;-81
2022/01/18 05:46:18;;;;;;;;;;;6.00;99.90;;;;;;5111759;27;19922;-78
2022/01/18 05:48:44;;;;;;;;;;;5.90;99.90;;;;;;5110237;27;20522;-82
2022/01/18 05:51:10;;;;;;;;;;;5.90;99.90;;;;;;5112030;27;19967;-78
2022/01/18 05:53:35;;;;;;;;;;;5.90;99.90;;;;;;5113118;27;19976;-80
2022/01/18 05:56:05;;;;;;;;;;;5.70;99.90;;;;;;5108045;27;19919;-80
2022/01/18 05:58:31;;;;;;;;;;;5.90;99.90;;;;;;5114272;27;19924;-77
2022/01/18 06:00:56;;;;;;;;;;;6.10;99.90;;;;;;5110130;28;19916;-78
2022/01/18 06:03:52;;;;;;;;;;;5.90;99.90;;;;;;5107122;27;20319;-79
2022/01/18 06:09:07;;;;;;;;;;;5.90;99.90;;;;;;5107963;27;20015;-80
2022/01/18 06:11:33;;;;;;;;;;;5.90;99.90;;;;;;5080050;27;20330;-80
2022/01/18 06:13:59;;;;;;;;;;;5.90;99.90;;;;;;5110778;27;19949;-78
2022/01/18 06:16:25;;;;;;;;;;;5.90;99.90;;;;;;5114111;27;19915;-77
2022/01/18 06:18:51;;;;;;;;;;;5.90;99.90;;;;;;5109819;27;20384;-83
2022/01/18 06:21:16;;;;;;;;;;;5.90;99.90;;;;;;5109993;27;19922;-81
2022/01/18 06:23:42;;;;;;;;;;;5.90;99.90;;;;;;5085270;28;19916;-78
2022/01/18 06:26:12;;;;;;;;;;;5.90;99.90;;;;;;5096900;27;19919;-81
2022/01/18 06:28:38;;;;;;;;;;;5.80;99.90;;;;;;5114916;27;20372;-79
2022/01/18 06:31:03;;;;;;;;;;;5.80;99.90;;;;;;5084602;28;19922;-81
2022/01/18 06:33:29;;;;;;;;;;;5.90;99.90;;;;;;5107966;28;20398;-78
2022/01/18 06:35:54;;;;;;;;;;;5.90;99.90;;;;;;5129560;27;19920;-79
2022/01/18 06:38:20;;;;;;;;;;;6.40;99.90;;;;;;5111144;27;19915;-79
2022/01/18 06:40:47;;;;;;;;;;;6.00;99.90;;;;;;5111578;27;20303;-79
2022/01/18 06:43:13;;;;;;;;;;;6.00;99.90;;;;;;5114424;27;19962;-81
2022/01/18 06:45:38;;;;;;;;;;;6.00;99.90;;;;;;5103101;28;19915;-79
2022/01/18 06:48:04;;;;;;;;;;;6.90;99.90;;;;;;5111298;28;19937;-82
2022/01/18 06:50:29;;;;;;;;;;;6.10;99.90;;;;;;5095654;28;19922;-80
2022/01/18 06:52:55;;;;;;;;;;;6.10;99.90;;;;;;5111057;27;19986;-79
2022/01/18 06:55:21;;;;;;;;;;;6.10;99.90;;;;;;5089778;28;19930;-81
2022/01/18 06:57:46;;;;;;;;;;;6.10;99.90;;;;;;5117809;27;19916;-81
2022/01/18 07:00:12;;;;;;;;;;;6.10;99.90;;;;;;5118661;27;19964;-80
2022/01/18 07:02:38;;;;;;;;;;;6.00;99.90;;;;;;5110964;27;19931;-81
2022/01/18 07:05:03;;;;;;;;;;;6.50;99.90;;;;;;5114741;28;19919;-78
2022/01/18 07:07:29;;;;;;;;;;;6.00;99.90;;;;;;5099826;27;20034;-79
2022/01/18 07:09:55;;;;;;;;;;;6.00;99.90;;;;;;5113292;27;19970;-80
2022/01/18 07:12:22;;;;;;;;;;;6.00;99.90;;;;;;5096329;27;19961;-81
2022/01/18 07:14:48;;;;;;;;;;;6.10;99.90;;;;;;5092916;27;20419;-84
2022/01/18 07:17:19;;;;;;;;;;;6.00;99.90;;;;;;5110037;27;19927;-83
2022/01/18 07:19:45;;;;;;;;;;;6.00;99.90;;;;;;5117090;27;19919;-79
2022/01/18 07:22:10;;;;;;;;;;;6.00;99.90;;;;;;5108297;27;19919;-77
2022/01/18 07:24:44;;;;;;;;;;;5.90;99.90;;;;;;5113543;28;19965;-82
2022/01/18 07:27:11;;;;;;;;;;;5.90;99.90;;;;;;5117546;27;19915;-78
2022/01/18 07:29:37;;;;;;;;;;;5.90;99.90;;;;;;5120645;27;19919;-80
2022/01/18 07:32:04;;;;;;;;;;;6.30;99.90;;;;;;5098309;27;19915;-82
2022/01/18 07:34:32;;;;;;;;;;;5.90;99.90;;;;;;5115576;27;20002;-83
2022/01/18 07:36:57;;;;;;;;;;;7.10;99.90;;;;;;5082347;27;19966;-80
2022/01/18 07:39:23;;;;;;;;;;;5.80;99.90;;;;;;5115300;27;19962;-80
2022/01/18 07:41:48;;;;;;;;;;;5.80;99.90;;;;;;5112871;27;20526;-80
2022/01/18 07:44:14;;;;;;;;;;;5.80;99.90;;;;;;5108470;28;19949;-87
2022/01/18 07:46:40;;;;;;;;;;;5.80;99.90;;;;;;5115480;27;19915;-81
2022/01/18 07:49:06;;;;;;;;;;;5.80;99.90;;;;;;5098346;27;20443;-82
2022/01/18 07:51:31;;;;;;;;;;;5.80;99.90;;;;;;5094056;27;20031;-80
2022/01/18 07:53:57;;;;;;;;;;;5.80;99.90;;;;;;5114270;27;19976;-82
2022/01/18 07:56:22;;;;;;;;;;;5.80;99.90;;;;;;5086685;27;19998;-79
2022/01/18 07:58:48;;;;;;;;;;;5.70;99.90;;;;;;5105655;27;19964;-79
2022/01/18 08:01:13;;;;;;;;;;;5.80;99.90;;;;;;5111011;28;19915;-82
2022/01/18 08:03:39;;;;;;;;;;;5.60;99.90;;;;;;5111584;27;20022;-80
2022/01/18 08:06:05;;;;;;;;;;;5.60;99.90;;;;;;5097489;27;19924;-81
2022/01/18 08:08:32;;;;;;;;;;;5.50;99.90;;;;;;5082771;28;19975;-81
2022/01/18 08:11:00;;;;;;;;;;;5.40;99.90;;;;;;5108718;27;19919;-82
2022/01/18 08:13:34;;;;;;;;;;;6.40;99.90;;;;;;5115948;27;19911;-82
2022/01/18 08:16:21;;;;;;;;;;;5.40;99.90;;;;;;5120994;27;20283;-81
2022/01/18 08:18:45;;;;;;;;;;;5.40;99.90;;;;;;5117381;27;19923;-79
2022/01/18 08:21:11;;;;;;;;;;;5.40;99.90;;;;;;5111183;27;19915;-82
2022/01/18 08:23:37;;;;;;;;;;;4.90;99.90;;;;;;5095301;27;19926;-81
2022/01/18 08:26:02;;;;;;;;;;;5.40;99.90;;;;;;5116497;27;19972;-83
2022/01/18 08:28:28;;;;;;;;;;;5.40;99.90;;;;;;5087090;27;19965;-84
2022/01/18 08:30:53;;;;;;;;;;;5.50;99.90;;;;;;5094480;27;20357;-83
2022/01/18 08:33:19;;;;;;;;;;;5.50;99.90;;;;;;5113310;27;19922;-87
2022/01/18 08:35:45;;;;;;;;;;;5.50;99.90;;;;;;5098487;27;19923;-81
2022/01/18 08:38:10;;;;;;;;;;;4.90;99.90;;;;;;5093644;27;20034;-79
2022/01/18 08:40:36;;;;;;;;;;;5.60;99.90;;;;;;5091414;27;20372;-84
2022/01/18 08:43:01;;;;;;;;;;;5.70;99.90;;;;;;5120022;27;19968;-80
2022/01/18 08:45:27;;;;;;;;;;;5.60;99.90;;;;;;5129275;27;19930;-82
2022/01/18 08:47:53;;;;;;;;;;;5.80;99.90;;;;;;5114052;27;19919;-81
2022/01/18 08:50:19;;;;;;;;;;;5.80;99.90;;;;;;5098007;27;19919;-80
2022/01/18 08:52:48;;;;;;;;;;;5.80;99.90;;;;;;5113169;27;19993;-79
2022/01/18 08:55:14;;;;;;;;;;;5.90;99.90;;;;;;5095498;27;20019;-83
2022/01/18 08:57:39;;;;;;;;;;;6.00;99.90;;;;;;5080907;27;20058;-81
2022/01/18 09:00:08;;;;;;;;;;;5.90;99.90;;;;;;5095289;27;19919;-83
2022/01/18 09:02:34;;;;;;;;;;;6.00;99.90;;;;;;5098072;27;19964;-81
2022/01/18 09:04:59;;;;;;;;;;;6.50;99.90;;;;;;5092700;28;19924;-84
2022/01/18 09:07:25;;;;;;;;;;;6.00;99.90;;;;;;5104874;27;19919;-79
2022/01/18 09:09:55;;;;;;;;;;;6.10;99.90;;;;;;5106436;27;20411;-80
2022/01/18 09:12:21;;;;;;;;;;;6.10;99.90;;;;;;5107583;27;19926;-79
2022/01/18 09:14:46;;;;;;;;;;;6.10;99.90;;;;;;5095201;27;19920;-79
2022/01/18 09:17:12;;;;;;;;;;;6.20;99.90;;;;;;5097054;27;19922;-78
2022/01/18 09:19:38;;;;;;;;;;;6.10;99.90;;;;;;5096518;27;19945;-79
2022/01/18 09:22:04;;;;;;;;;;;6.20;99.90;;;;;;5076230;28;19924;-82
2022/01/18 09:24:31;;;;;;;;;;;6.20;99.90;;;;;;5108580;28;19919;-80
2022/01/18 09:26:57;;;;;;;;;;;6.30;99.90;;;;;;5131891;27;19962;-79
2022/01/18 09:29:23;;;;;;;;;;;6.30;99.90;;;;;;5113236;27;20341;-81
2022/01/18 09:31:52;;;;;;;;;;;6.30;99.90;;;;;;5106862;27;19994;-80
2022/01/18 09:34:17;;;;;;;;;;;6.50;99.90;;;;;;5112285;27;19966;-83
2022/01/18 09:36:43;;;;;;;;;;;6.40;99.90;;;;;;5114087;27;19916;-81
2022/01/18 09:39:09;;;;;;;;;;;6.40;99.90;;;;;;5083581;27;20341;-83
2022/01/18 09:41:39;;;;;;;;;;;6.50;99.90;;;;;;5112939;27;19919;-83
2022/01/18 09:44:06;;;;;;;;;;;6.50;99.90;;;;;;5098004;27;20361;-83
2022/01/18 09:46:31;;;;;;;;;;;6.60;99.90;;;;;;5096272;27;20417;-82
2022/01/18 09:48:57;;;;;;;;;;;6.50;99.90;;;;;;5109305;27;20152;-82
2022/01/18 09:51:23;;;;;;;;;;;6.60;99.90;;;;;;5122528;27;20002;-84
2022/01/18 09:53:49;;;;;;;;;;;6.60;99.90;;;;;;5114735;27;20001;-78
2022/01/18 09:56:15;;;;;;;;;;;6.70;99.90;;;;;;5111376;27;19928;-78
2022/01/18 09:58:41;;;;;;;;;;;6.70;99.90;;;;;;5118606;27;19927;-77
2022/01/18 10:01:07;;;;;;;;;;;6.80;99.90;;;;;;5118347;27;20928;-79
2022/01/18 10:03:33;;;;;;;;;;;6.80;99.90;;;;;;5109701;28;20447;-82
2022/01/18 10:06:00;;;;;;;;;;;7.50;99.90;;;;;;5089524;27;19922;-83
2022/01/18 10:08:26;;;;;;;;;;;6.90;99.90;;;;;;5105111;27;19923;-79
2022/01/18 10:10:54;;;;;;;;;;;6.80;99.90;;;;;;5094403;28;19922;-86
2022/01/18 10:13:22;;;;;;;;;;;6.90;99.90;;;;;;5132956;27;19923;-85
2022/01/18 10:15:57;;;;;;;;;;;7.00;99.90;;;;;;5103047;28;19920;-81
2022/01/18 10:18:34;;;;;;;;;;;7.00;99.90;;;;;;5099960;27;19994;-84
2022/01/18 10:20:59;;;;;;;;;;;7.00;99.90;;;;;;5087942;28;20302;-81
2022/01/18 10:23:28;;;;;;;;;;;7.10;99.90;;;;;;5130533;27;19934;-80
2022/01/18 10:25:54;;;;;;;;;;;7.00;99.90;;;;;;5087323;27;19915;-82
2022/01/18 10:28:46;;;;;;;;;;;8.50;99.90;;;;;;5098658;28;19923;-82
2022/01/18 10:31:25;;;;;;;;;;;7.00;99.90;;;;;;5122753;27;19994;-80
2022/01/18 10:34:10;;;;;;;;;;;7.10;99.90;;;;;;5092131;28;19980;-80
2022/01/18 10:36:53;;;;;;;;;;;7.20;99.90;;;;;;5084698;27;20402;-84
2022/01/18 10:39:22;;;;;;;;;;;6.50;99.90;;;;;;5090505;27;19915;-79
2022/01/18 10:41:49;;;;;;;;;;;7.10;99.90;;;;;;5093273;28;20632;-81
2022/01/18 10:44:15;;;;;;;;;;;7.50;99.90;;;;;;5095349;28;19916;-81
2022/01/18 10:46:47;;;;;;;;;;;7.30;99.90;;;;;;5093621;28;19967;-82
2022/01/18 10:49:24;;;;;;;;;;;7.30;99.90;;;;;;5090698;28;19915;-81
2022/01/18 10:51:55;;;;;;;;;;;7.30;99.90;;;;;;5131461;28;20372;-80
2022/01/18 10:54:20;;;;;;;;;;;7.30;99.90;;;;;;5101425;28;20263;-82
2022/01/18 10:56:49;;;;;;;;;;;7.30;99.90;;;;;;5076478;28;20034;-83
2022/01/18 10:59:22;;;;;;;;;;;7.40;99.90;;;;;;5113101;28;19989;-78
2022/01/18 11:02:04;;;;;;;;;;;7.30;99.90;;;;;;5130290;28;19927;-82
2022/01/18 11:04:30;;;;;;;;;;;7.20;99.90;;;;;;5096058;28;20360;-82
2022/01/18 11:07:01;;;;;;;;;;;7.10;99.90;;;;;;5094106;28;19927;-78
2022/01/18 11:09:26;;;;;;;;;;;6.90;99.90;;;;;;5106156;27;19922;-79
2022/01/18 11:11:52;;;;;;;;;;;7.10;99.90;;;;;;5079831;28;19919;-80
2022/01/18 11:14:46;;;;;;;1.70;1.40;;;7.00;99.90;;;;;;5037318;28;20815;-79
2022/01/18 11:17:24;;;;;;;2.08;1.42;;;7.10;99.90;;;;;;5010439;28;20048;-79
2022/01/18 11:19:54;;;;;;;1.42;1.33;;;7.20;99.90;;;;;;5041150;28;20054;-78
2022/01/18 11:22:24;;;;;;;3.17;2.05;;;7.30;99.90;;;;;;5020682;28;20042;-79
2022/01/18 11:24:50;;;;;;;4.38;1.90;;;7.40;99.90;;;;;;5038466;28;20123;-80
2022/01/18 11:27:19;;;;;;;;;;;7.40;99.90;;;;;;5015696;28;20106;-80
2022/01/18 11:30:19;;;;;;;2.40;1.52;;;7.40;99.90;;;;;;5053567;28;19920;-79
2022/01/18 11:33:04;;;;;;;1.58;1.33;;;7.50;99.90;;;;;;4961967;28;20083;-86
2022/01/18 11:36:15;;;;;;;2.15;1.35;;;7.80;99.90;;;;;;4978899;28;20046;-82
2022/01/18 11:39:10;;;;;;;5.60;2.17;;;8.80;99.90;;;;;;4937941;28;20129;-81
2022/01/18 11:42:10;;;;;;;1.38;1.27;;;7.00;99.90;;;;;;4960949;28;20054;-78
2022/01/18 11:44:47;;;;;;;3.00;1.65;;;9.00;99.90;;;;;;4953483;28;20055;-80
2022/01/18 11:47:31;;;;;;;1.08;0.98;;;7.30;99.90;;;;;;5003170;28;20097;-78
2022/01/18 11:50:20;;;;;;;10.75;2.00;;;7.40;99.90;;;;;;4971022;28;20061;-82
2022/01/18 11:54:17;;;;;;;2.83;1.60;;;7.40;99.90;;;;;;4963509;28;20051;-81
2022/01/18 12:00:05;;;;;;;7.38;1.30;;;7.60;99.90;;;;;;4953402;28;20071;-79
2022/01/18 12:02:42;;;;;;;2.40;1.77;;;7.50;99.90;;;;;;4949705;28;20396;-84
2022/01/18 12:05:25;;;;;;;2.13;1.23;;;7.40;99.90;;;;;;4997905;28;20591;-82
2022/01/18 12:08:02;;;;;;;1.10;1.00;;;6.80;99.90;;;;;;5023021;28;20039;-80
2022/01/18 12:10:31;;;;;;;3.83;1.50;;;7.30;99.90;;;;;;4998850;28;20570;-79
2022/01/18 12:13:12;;;;;;;2.05;1.50;;;7.30;99.90;;;;;;5013930;28;20050;-79
2022/01/18 12:15:41;;;;;;;3.05;1.60;;;7.30;99.90;;;;;;5001505;28;20076;-80
2022/01/18 12:18:10;;;;;;;2.22;1.67;;;7.30;99.90;;;;;;5038091;28;20049;-78
2022/01/18 12:20:35;;;;;;;1.27;1.17;;;7.20;99.90;;;;;;5024436;28;20073;-79
2022/01/18 12:23:03;;;;;;;5.28;2.13;;;7.20;99.90;;;;;;5004785;28;20088;-76
2022/01/18 12:25:31;;;;;;;2.65;1.85;;;7.20;99.90;;;;;;4989791;28;20133;-80
2022/01/18 12:28:02;;;;;;;3.33;1.80;;;7.20;99.90;;;;;;5018308;28;20046;-80
2022/01/18 12:30:42;;;;;;;3.05;2.00;;;7.20;99.90;;;;;;4990069;28;20117;-80
2022/01/18 12:33:18;;;;;;;2.08;1.30;;;7.20;99.90;;;;;;4988098;28;20049;-80
2022/01/18 12:35:44;;;;;;;2.35;1.50;;;7.10;99.90;;;;;;4988364;28;20478;-83
2022/01/18 12:38:21;;;;;;;4.55;1.20;;;7.10;99.90;;;;;;4990332;28;20054;-79
2022/01/18 12:40:47;;;;;;;3.58;2.22;;;7.10;99.90;;;;;;4989291;28;20095;-80
2022/01/18 12:45:42;;;;;;;3.67;1.95;;;7.40;99.90;;;;;;5080162;28;20081;-80
2022/01/18 12:48:10;;;;;;;2.50;1.65;;;7.10;99.90;;;;;;4993323;28;20065;-81
2022/01/18 12:50:46;;;;;;;3.30;1.98;;;7.00;99.90;;;;;;4976876;28;20061;-82
2022/01/18 12:53:13;;;;;;;12.05;2.13;;;7.10;99.90;;;;;;4981445;28;20053;-78
2022/01/18 12:55:48;;;;;;;8.88;2.20;;;6.90;99.90;;;;;;4973184;28;20049;-80
2022/01/18 12:58:31;;;;;;;2.03;1.20;;;6.90;99.90;;;;;;5073306;28;20418;-80
2022/01/18 13:01:07;;;;;;;7.03;2.72;;;6.90;99.90;;;;;;4987311;28;20038;-79
2022/01/18 13:03:35;;;;;;;6.95;2.10;;;7.00;99.90;;;;;;4987370;28;20046;-80
2022/01/18 13:06:04;;;;;;;5.60;1.55;;;6.90;99.90;;;;;;4983128;28;20085;-78
2022/01/18 13:08:43;;;;;;;3.92;2.05;;;6.90;99.90;;;;;;4990920;28;20054;-77
2022/01/18 13:11:18;;;;;;;5.30;2.35;;;6.90;99.90;;;;;;5002254;28;20431;-80
2022/01/18 13:13:52;;;;;;;4.65;2.13;;;6.90;99.90;;;;;;4985755;28;20109;-80
2022/01/18 13:29:55;;;;;;;5.88;2.75;;;7.10;99.90;;;;;;5083506;28;20066;-76
2022/01/18 13:32:27;;;;;;;1.58;1.48;;;7.20;99.90;;;;;;4990025;28;20051;-82
2022/01/18 13:34:57;;;;;;;3.30;2.85;;;7.20;99.90;;;;;;5058366;28;20042;-81
2022/01/18 13:37:31;;;;;;;9.30;2.05;;;7.30;99.90;;;;;;4970163;28;20072;-81
2022/01/18 13:40:14;;;;;;;2.55;2.35;;;7.40;99.90;;;;;;5019016;28;20049;-81
2022/01/18 13:42:41;;;;;;;13.48;3.53;;;7.40;99.90;;;;;;5001994;28;20042;-80
2022/01/18 13:45:20;;;;;;;3.15;2.28;;;7.30;99.90;;;;;;4994935;28;20106;-80
2022/01/18 13:48:08;;;;;;;3.40;1.90;;;7.30;99.90;;;;;;5076120;28;20513;-79
2022/01/18 13:50:55;;;;;;;3.92;2.20;;;7.20;99.90;;;;;;4987560;28;20081;-82
2022/01/18 13:53:27;;;;;;;7.20;3.05;;;7.20;99.90;;;;;;5012739;28;20034;-78
2022/01/18 13:56:09;;;;;;;4.22;2.75;;;7.20;99.90;;;;;;5004174;28;20104;-80
2022/01/18 13:58:39;;;;;;;5.07;2.67;;;7.20;99.90;;;;;;4963887;28;20046;-78
2022/01/18 14:01:20;;;;;;;3.83;2.13;;;7.20;99.90;;;;;;4969634;28;20388;-82
2022/01/18 14:03:49;;;;;;;1.85;1.35;;;7.10;99.90;;;;;;5076131;28;20100;-80
2022/01/18 14:06:16;;;;;;;4.45;2.03;;;7.00;99.90;;;;;;4975986;28;20054;-75
2022/01/18 14:09:02;;;;;;;8.93;3.53;;;6.90;99.90;;;;;;4985779;28;20050;-77
2022/01/18 14:11:31;;;;;;;6.53;2.97;;;6.80;99.90;;;;;;4995164;28;20038;-78
2022/01/18 14:13:57;;;;;;;6.18;2.33;;;6.90;99.90;;;;;;4983536;28;20054;-76
2022/01/18 14:16:33;;;;;;;;;;;6.80;99.90;;;;;;4977650;28;20055;-78
2022/01/18 14:19:01;;;;;;;7.22;2.38;;;6.80;99.90;;;;;;4998904;28;19922;-75
2022/01/18 14:21:30;;;;;;;4.05;2.30;;;6.80;99.90;;;;;;4984679;28;20038;-75
2022/01/18 14:24:18;;;;;;;5.55;2.35;;;6.80;99.90;;;;;;4988504;28;20058;-79
2022/01/18 14:26:53;;;;;;;4.38;1.65;;;6.80;99.90;;;;;;5064722;28;20080;-78
2022/01/18 14:29:28;;;;;;;4.72;1.73;;;6.80;99.90;;;;;;4979540;28;20045;-81
2022/01/18 14:31:57;;;;;;;5.10;2.17;;;6.70;99.90;;;;;;4983637;28;20042;-78
2022/01/18 14:34:28;;;;;;;3.90;2.38;;;6.70;99.90;;;;;;5070876;28;20120;-82
2022/01/18 14:36:55;;;;;;;10.55;2.88;;;6.70;99.90;;;;;;4984331;28;20053;-83
2022/01/18 14:39:21;;;;;;;4.47;2.65;;;6.60;99.90;;;;;;5001601;28;20042;-79
2022/01/18 14:41:49;;;;;;;;;;;6.50;99.90;;;;;;5005879;28;20510;-79
2022/01/18 14:44:25;;;;;;;5.22;2.35;;;6.40;99.90;;;;;;5065990;28;20141;-76
2022/01/18 14:47:24;;;;;;;8.82;3.40;;;6.40;99.90;;;;;;4965084;28;20050;-80
2022/01/18 14:49:42;;;;;;;4.43;2.63;;;6.30;99.90;;;;;;4983080;28;20050;-79
2022/01/18 14:52:09;;;;;;;5.35;2.22;;;6.30;99.90;;;;;;5028998;28;20049;-81
2022/01/18 14:54:35;;;;;;;8.18;2.35;;;6.20;99.90;;;;;;4950585;28;20053;-82
2022/01/18 14:57:02;;;;;;;6.97;2.42;;;6.10;99.90;;;;;;4979414;28;20031;-81
2022/01/18 14:59:28;;;;;;;11.10;2.47;;;6.10;99.90;;;;;;4965418;28;20081;-80
2022/01/18 15:01:56;;;;;;;4.13;2.30;;;6.10;99.90;;;;;;5065610;28;20125;-82
2022/01/18 15:04:25;;;;;;;9.07;2.58;;;6.60;99.90;;;;;;4985123;28;20050;-79
2022/01/18 15:06:51;;;;;;;5.53;2.05;;;6.00;99.90;;;;;;4981011;28;20077;-79
2022/01/18 15:09:17;;;;;;;2.92;1.83;;;7.00;99.90;;;;;;4968106;28;20043;-77
2022/01/18 15:11:43;;;;;;;8.60;2.97;;;6.00;99.90;;;;;;4987249;28;20073;-81
2022/01/18 15:14:09;;;;;;;3.47;1.98;;;6.10;99.90;;;;;;4970111;28;20695;-84
2022/01/18 15:16:35;;;;;;;3.15;2.30;;;6.00;99.90;;;;;;4959432;28;20062;-83
2022/01/18 15:19:01;;;;;;;6.65;1.92;;;6.00;99.90;;;;;;5085012;28;20487;-82
2022/01/18 15:21:29;;;;;;;6.45;3.22;;;5.90;99.90;;;;;;5070873;28;20065;-84
2022/01/18 15:24:00;;;;;;;4.80;2.83;;;5.90;99.90;;;;;;4984973;28;20497;-81
2022/01/18 15:26:27;;;;;;;11.90;3.33;;;6.80;99.90;;;;;;4999869;28;20046;-81
2022/01/18 15:28:52;;;;;;;6.82;2.85;;;5.80;99.90;;;;;;4970466;28;20054;-83
2022/01/18 15:31:18;;;;;;;8.25;3.10;;;5.70;99.90;;;;;;5052378;28;20115;-79
2022/01/18 15:33:44;;;;;;;4.53;2.83;;;6.30;99.90;;;;;;4970735;28;20081;-82
2022/01/18 15:36:11;;;;;;;6.88;2.70;;;5.70;99.90;;;;;;4986736;28;20113;-78